createdAt,value
2022-08-30T00:01:29.035Z,101680.38
2022-08-30T00:03:58.333Z,101685.50
2022-08-30T00:06:26.926Z,101678.13
2022-08-30T00:08:55.865Z,101683.25
2022-08-30T00:11:27.137Z,101678.63
2022-08-30T00:13:56.543Z,101692.66
2022-08-30T00:16:26.398Z,101686.41
2022-08-30T00:18:53.749Z,101681.78
2022-08-30T00:21:21.308Z,101690.41
2022-08-30T00:23:48.436Z,101683.88
2022-08-30T00:26:15.348Z,101688.47
2022-08-30T00:28:42.717Z,101691.97
2022-08-30T00:31:10.477Z,101684.91
2022-08-30T00:33:42.108Z,101687.31
2022-08-30T00:36:08.983Z,101697.88
2022-08-30T00:38:36.203Z,101696.78
2022-08-30T00:41:03.378Z,101689.47
2022-08-30T00:43:34.215Z,101694.06
2022-08-30T00:46:08.206Z,101688.88
2022-08-30T00:48:43.881Z,101695.91
2022-08-30T00:51:14.320Z,101688.06
2022-08-30T00:53:48.788Z,101686.44
2022-08-30T00:56:17.983Z,101685.06
2022-08-30T00:58:49.601Z,101696.19
2022-08-30T01:01:17.558Z,101692.91
2022-08-30T01:03:45.994Z,101694.81
2022-08-30T01:06:17.373Z,101693.19
2022-08-30T01:08:47.102Z,101694.25
2022-08-30T01:11:18.979Z,101705.59
2022-08-30T01:13:47.545Z,101712.88
2022-08-30T01:16:15.524Z,101708.28
2022-08-30T01:18:42.838Z,101709.63
2022-08-30T01:21:27.301Z,101705.84
2022-08-30T01:23:58.649Z,101710.94
2022-08-30T01:26:29.184Z,101702.00
2022-08-30T01:29:04.820Z,101702.56
2022-08-30T01:31:34.543Z,101704.47
2022-08-30T01:34:07.514Z,101704.72
2022-08-30T01:36:37.834Z,101709.63
2022-08-30T01:39:17.377Z,101716.66
2022-08-30T01:41:45.196Z,101699.88
2022-08-30T01:44:13.941Z,101714.22
2022-08-30T01:46:46.039Z,101705.84
2022-08-30T01:49:18.967Z,101705.84
2022-08-30T01:52:01.071Z,101710.94
2022-08-30T01:54:33.369Z,101708.50
2022-08-30T01:57:06.453Z,101713.91
2022-08-30T01:59:33.891Z,101701.72
2022-08-30T02:02:00.828Z,101710.13
2022-08-30T02:04:28.001Z,101707.69
2022-08-30T02:06:54.937Z,101703.91
2022-08-30T02:09:22.105Z,101695.22
2022-08-30T02:11:49.178Z,101700.94
2022-08-30T02:14:16.240Z,101697.69
2022-08-30T02:16:43.471Z,101695.22
2022-08-30T02:19:11.403Z,101702.28
2022-08-30T02:21:40.804Z,101692.78
2022-08-30T02:24:07.793Z,101694.94
2022-08-30T02:26:36.754Z,101707.63
2022-08-30T02:29:05.854Z,101699.22
2022-08-30T02:31:33.508Z,101696.22
2022-08-30T02:34:00.667Z,101698.09
2022-08-30T02:36:28.182Z,101698.59
2022-08-30T02:38:55.140Z,101700.50
2022-08-30T02:41:23.735Z,101699.41
2022-08-30T02:43:51.579Z,101698.59
2022-08-30T02:46:19.125Z,101697.78
2022-08-30T02:48:46.313Z,101698.31
2022-08-30T02:51:14.591Z,101692.06
2022-08-30T02:53:44.090Z,101707.22
2022-08-30T02:56:14.140Z,101702.91
2022-08-30T02:58:42.711Z,101698.56
2022-08-30T03:01:13.486Z,101695.59
2022-08-30T03:03:42.968Z,101693.16
2022-08-30T03:06:12.902Z,101697.19
2022-08-30T03:08:39.903Z,101694.97
2022-08-30T03:11:07.372Z,101691.94
2022-08-30T03:13:34.407Z,101699.50
2022-08-30T03:16:01.436Z,101684.84
2022-08-30T03:18:28.705Z,101699.44
2022-08-30T03:20:55.773Z,101697.50
2022-08-30T03:23:24.114Z,101697.75
2022-08-30T03:25:53.350Z,101697.44
2022-08-30T03:28:21.373Z,101699.84
2022-08-30T03:30:48.489Z,101703.88
2022-08-30T03:33:16.069Z,101700.84
2022-08-30T03:35:45.637Z,101702.16
2022-08-30T03:38:12.670Z,101708.91
2022-08-30T03:40:39.953Z,101713.19
2022-08-30T03:43:07.602Z,101710.47
2022-08-30T03:45:35.904Z,101711.53
2022-08-30T03:48:03.732Z,101710.72
2022-08-30T03:50:31.604Z,101719.66
2022-08-30T03:53:01.328Z,101719.91
2022-08-30T03:55:30.435Z,101724.81
2022-08-30T03:57:58.485Z,101724.25
2022-08-30T04:00:25.879Z,101728.31
2022-08-30T04:02:52.815Z,101715.88
2022-08-30T04:05:21.631Z,101712.34
2022-08-30T04:07:48.615Z,101716.44
2022-08-30T04:10:16.176Z,101719.16
2022-08-30T04:12:47.423Z,101723.97
2022-08-30T04:15:18.851Z,101734.28
2022-08-30T04:17:46.497Z,101727.25
2022-08-30T04:20:13.465Z,101731.03
2022-08-30T04:22:40.817Z,101729.13
2022-08-30T04:25:08.882Z,101723.16
2022-08-30T04:27:46.469Z,101732.09
2022-08-30T04:30:16.921Z,101739.38
2022-08-30T04:32:44.811Z,101741.53
2022-08-30T04:35:13.244Z,101742.34
2022-08-30T04:37:40.517Z,101737.19
2022-08-30T04:40:08.633Z,101748.00
2022-08-30T04:42:36.595Z,101743.88
2022-08-30T04:45:10.960Z,101747.19
2022-08-30T04:47:39.345Z,101740.59
2022-08-30T04:50:10.150Z,101746.00
2022-08-30T04:52:37.719Z,101744.94
2022-08-30T04:55:06.221Z,101747.41
2022-08-30T04:57:33.241Z,101749.63
2022-08-30T05:00:00.319Z,101745.59
2022-08-30T05:02:28.010Z,101749.13
2022-08-30T05:05:14.173Z,101749.13
2022-08-30T05:07:41.727Z,101743.16
2022-08-30T05:10:11.355Z,101750.75
2022-08-30T05:12:40.541Z,101758.63
2022-08-30T05:15:08.393Z,101749.94
2022-08-30T05:17:38.036Z,101756.47
2022-08-30T05:20:07.279Z,101756.22
2022-08-30T05:22:37.729Z,101758.69
2022-08-30T05:25:06.969Z,101761.13
2022-08-30T05:27:34.455Z,101761.94
2022-08-30T05:30:06.451Z,101768.47
2022-08-30T05:32:33.324Z,101772.88
2022-08-30T05:35:00.348Z,101771.88
2022-08-30T05:37:27.813Z,101771.69
2022-08-30T05:39:56.557Z,101773.72
2022-08-30T05:42:23.527Z,101762.69
2022-08-30T05:44:52.708Z,101762.00
2022-08-30T05:47:21.333Z,101776.69
2022-08-30T05:49:48.922Z,101765.41
2022-08-30T05:52:18.118Z,101770.38
2022-08-30T05:54:46.537Z,101776.72
2022-08-30T05:57:13.540Z,101772.47
2022-08-30T05:59:40.631Z,101767.94
2022-08-30T06:02:07.629Z,101768.38
2022-08-30T06:04:36.413Z,101776.88
2022-08-30T06:07:04.241Z,101777.50
2022-08-30T06:09:32.163Z,101773.03
2022-08-30T06:11:59.192Z,101774.47
2022-08-30T06:14:26.124Z,101775.34
2022-08-30T06:16:53.847Z,101777.31
2022-08-30T06:19:22.698Z,101766.28
2022-08-30T06:21:51.625Z,101776.66
2022-08-30T06:24:18.958Z,101775.13
2022-08-30T06:26:47.669Z,101771.34
2022-08-30T06:29:19.180Z,101771.66
2022-08-30T06:31:47.364Z,101770.09
2022-08-30T06:34:15.699Z,101773.91
2022-08-30T06:36:43.044Z,101773.09
2022-08-30T06:39:11.063Z,101773.91
2022-08-30T06:41:40.756Z,101764.41
2022-08-30T06:44:21.034Z,101780.16
2022-08-30T06:46:48.141Z,101778.25
2022-08-30T06:49:15.409Z,101774.13
2022-08-30T06:51:42.282Z,101780.09
2022-08-30T06:54:12.285Z,101784.13
2022-08-30T06:56:48.684Z,101776.22
2022-08-30T06:59:26.919Z,101783.78
2022-08-30T07:01:55.269Z,101784.28
2022-08-30T07:04:22.586Z,101778.81
2022-08-30T07:06:49.716Z,101785.00
2022-08-30T07:09:17.627Z,101776.22
2022-08-30T07:11:44.695Z,101783.25
2022-08-30T07:14:11.737Z,101776.38
2022-08-30T07:16:39.124Z,101773.13
2022-08-30T07:19:06.878Z,101774.38
2022-08-30T07:21:45.089Z,101781.09
2022-08-30T07:24:13.570Z,101784.50
2022-08-30T07:26:49.057Z,101783.84
2022-08-30T07:29:17.313Z,101779.06
2022-08-30T07:31:46.932Z,101786.03
2022-08-30T07:34:13.879Z,101777.53
2022-08-30T07:36:40.834Z,101788.25
2022-08-30T07:39:08.148Z,101782.69
2022-08-30T07:41:38.747Z,101790.97
2022-08-30T07:44:08.232Z,101796.31
2022-08-30T07:46:37.589Z,101800.63
2022-08-30T07:49:11.019Z,101797.50
2022-08-30T07:51:40.322Z,101796.91
2022-08-30T07:54:08.205Z,101796.28
2022-08-30T07:56:36.354Z,101798.13
2022-08-30T07:59:03.833Z,101803.44
2022-08-30T08:01:31.090Z,101800.63
2022-08-30T08:03:59.120Z,101801.69
2022-08-30T08:06:27.593Z,101805.00
2022-08-30T08:09:02.224Z,101813.78
2022-08-30T08:11:33.445Z,101810.31
2022-08-30T08:14:01.434Z,101808.97
2022-08-30T08:16:31.304Z,101816.38
2022-08-30T08:18:58.581Z,101806.25
2022-08-30T08:21:26.121Z,101802.63
2022-08-30T08:23:54.056Z,101807.88
2022-08-30T08:26:22.172Z,101805.72
2022-08-30T08:28:49.171Z,101807.75
2022-08-30T08:31:19.124Z,101805.06
2022-08-30T08:33:46.284Z,101800.47
2022-08-30T08:36:13.585Z,101797.09
2022-08-30T08:38:40.693Z,101802.63
2022-08-30T08:41:28.046Z,101810.06
2022-08-30T08:43:55.171Z,101804.94
2022-08-30T08:46:37.924Z,101800.53
2022-08-30T08:49:07.288Z,101809.31
2022-08-30T08:51:58.593Z,101814.56
2022-08-30T08:54:42.195Z,101808.03
2022-08-30T08:57:13.854Z,101805.28
2022-08-30T08:59:45.065Z,101794.53
2022-08-30T09:02:36.390Z,101801.44
2022-08-30T09:05:04.237Z,101802.59
2022-08-30T09:07:38.191Z,101800.22
2022-08-30T09:10:06.502Z,101809.16
2022-08-30T09:12:33.559Z,101800.91
2022-08-30T09:15:17.680Z,101808.75
2022-08-30T09:18:02.450Z,101796.44
2022-08-30T09:20:49.549Z,101810.31
2022-08-30T09:23:17.518Z,101809.28
2022-08-30T09:25:57.902Z,101802.38
2022-08-30T09:28:49.450Z,101807.97
2022-08-30T09:31:33.968Z,101792.00
2022-08-30T09:34:03.995Z,101807.63
2022-08-30T09:36:43.968Z,101808.28
2022-08-30T09:39:33.604Z,101810.66
2022-08-30T09:42:28.753Z,101806.31
2022-08-30T09:45:10.334Z,101803.56
2022-08-30T09:47:42.024Z,101805.66
2022-08-30T09:50:20.303Z,101803.72
2022-08-30T09:53:10.513Z,101793.81
2022-08-30T09:55:46.683Z,101791.47
2022-08-30T09:58:48.361Z,101792.47
2022-08-30T10:01:23.717Z,101790.66
2022-08-30T10:03:57.904Z,101786.94
2022-08-30T10:06:51.922Z,101795.63
2022-08-30T10:09:54.796Z,101787.38
2022-08-30T10:12:54.641Z,101798.72
2022-08-30T10:15:28.939Z,101783.94
2022-08-30T10:18:13.754Z,101785.78
2022-08-30T10:20:43.757Z,101784.16
2022-08-30T10:23:36.570Z,101786.34
2022-08-30T10:26:25.609Z,101786.03
2022-08-30T10:29:25.601Z,101780.28
2022-08-30T10:32:17.691Z,101782.78
2022-08-30T10:34:56.031Z,101774.31
2022-08-30T10:37:30.167Z,101767.47
2022-08-30T10:40:26.556Z,101761.66
2022-08-30T10:42:56.435Z,101763.31
2022-08-30T10:45:26.901Z,101758.47
2022-08-30T10:48:19.300Z,101752.09
2022-08-30T10:50:53.867Z,101745.09
2022-08-30T10:53:44.027Z,101735.66
2022-08-30T10:56:18.618Z,101737.78
2022-08-30T10:58:45.935Z,101735.81
2022-08-30T11:01:46.636Z,101749.88
2022-08-30T11:04:30.445Z,101754.31
2022-08-30T11:07:26.692Z,101749.53
2022-08-30T11:10:15.055Z,101747.34
2022-08-30T11:13:03.467Z,101748.72
2022-08-30T11:16:01.382Z,101740.78
2022-08-30T11:18:33.563Z,101747.59
2022-08-30T11:24:20.966Z,101740.03
2022-08-30T11:26:51.025Z,101745.63
2022-08-30T11:29:32.954Z,101742.41
2022-08-30T11:32:19.613Z,101742.31
2022-08-30T11:34:46.452Z,101732.34
2022-08-30T11:37:40.741Z,101727.94
2022-08-30T11:40:19.313Z,101723.91
2022-08-30T11:42:50.804Z,101720.28
2022-08-30T11:45:25.476Z,101719.72
2022-08-30T11:48:09.376Z,101716.03
2022-08-30T11:51:00.296Z,101709.53
2022-08-30T11:53:59.017Z,101709.09
2022-08-30T11:56:53.644Z,101699.44
2022-08-30T12:00:02.073Z,101692.97
2022-08-30T12:03:20.994Z,101697.03
2022-08-30T12:05:59.934Z,101691.03
2022-08-30T12:08:34.404Z,101694.03
2022-08-30T12:11:13.537Z,101697.69
2022-08-30T12:13:43.582Z,101685.72
2022-08-30T12:16:26.010Z,101696.88
2022-08-30T12:19:00.213Z,101690.81
2022-08-30T12:21:43.718Z,101686.41
2022-08-30T12:24:26.941Z,101692.75
2022-08-30T12:26:54.820Z,101686.22
2022-08-30T12:29:28.586Z,101686.13
2022-08-30T12:32:08.411Z,101681.50
2022-08-30T12:34:43.427Z,101683.22
2022-08-30T12:37:33.174Z,101678.22
2022-08-30T12:40:22.820Z,101685.38
2022-08-30T12:43:16.870Z,101667.91
2022-08-30T12:46:15.424Z,101677.22
2022-08-30T12:48:44.093Z,101670.75
2022-08-30T12:51:36.794Z,101666.00
2022-08-30T12:54:29.634Z,101664.75
2022-08-30T12:59:59.269Z,101671.00
2022-08-30T13:02:51.963Z,101662.91
2022-08-30T13:05:34.315Z,101665.66
2022-08-30T13:08:22.476Z,101664.41
2022-08-30T13:11:18.272Z,101653.97
2022-08-30T13:13:53.059Z,101655.91
2022-08-30T13:16:26.518Z,101658.53
2022-08-30T13:19:26.027Z,101654.00
2022-08-30T13:21:58.672Z,101646.78
2022-08-30T13:24:27.873Z,101631.13
2022-08-30T13:27:02.351Z,101639.19
2022-08-30T13:29:30.005Z,101633.09
2022-08-30T13:31:57.807Z,101630.59
2022-08-30T13:34:24.906Z,101631.88
2022-08-30T13:36:56.374Z,101627.06
2022-08-30T13:39:24.150Z,101633.06
2022-08-30T13:41:52.165Z,101621.84
2022-08-30T13:50:02.952Z,101618.56
2022-08-30T13:52:30.067Z,101623.03
2022-08-30T13:54:58.253Z,101616.22
2022-08-30T14:03:14.400Z,101618.59
2022-08-30T14:05:57.059Z,101629.19
2022-08-30T14:08:52.363Z,101634.78
2022-08-30T14:11:22.544Z,101637.53
2022-08-30T14:16:42.728Z,101653.69
2022-08-30T14:19:12.405Z,101654.13
2022-08-30T14:21:39.828Z,101667.03
2022-08-30T14:24:07.134Z,101664.81
2022-08-30T14:26:45.845Z,101669.94
2022-08-30T14:29:16.896Z,101679.81
2022-08-30T14:31:44.682Z,101679.78
2022-08-30T14:34:14.129Z,101681.16
2022-08-30T14:36:43.473Z,101680.19
2022-08-30T14:39:15.153Z,101683.47
2022-08-30T14:41:46.607Z,101691.13
2022-08-30T14:44:15.517Z,101685.28
2022-08-30T14:46:44.320Z,101699.13
2022-08-30T14:49:13.203Z,101686.38
2022-08-30T14:51:41.255Z,101681.56
2022-08-30T14:54:10.118Z,101695.19
2022-08-30T14:56:39.312Z,101692.22
2022-08-30T14:59:07.431Z,101700.44
2022-08-30T15:01:36.943Z,101707.53
2022-08-30T15:04:07.443Z,101693.94
2022-08-30T15:06:37.438Z,101687.91
2022-08-30T15:09:07.090Z,101699.38
2022-08-30T15:11:35.056Z,101692.84
2022-08-30T15:14:02.164Z,101692.00
2022-08-30T15:16:34.053Z,101695.25
2022-08-30T15:19:02.332Z,101699.91
2022-08-30T15:21:36.735Z,101695.19
2022-08-30T15:24:05.849Z,101694.19
2022-08-30T15:26:33.464Z,101688.94
2022-08-30T15:29:00.571Z,101695.88
2022-08-30T15:31:28.987Z,101683.59
2022-08-30T15:33:56.647Z,101690.06
2022-08-30T15:36:25.197Z,101685.84
2022-08-30T15:38:55.797Z,101690.84
2022-08-30T15:41:23.575Z,101691.13
2022-08-30T15:43:51.531Z,101685.91
2022-08-30T15:46:29.700Z,101687.97
2022-08-30T15:49:03.102Z,101683.28
2022-08-30T15:51:41.432Z,101680.06
2022-08-30T15:54:11.598Z,101678.44
2022-08-30T15:56:41.914Z,101674.25
2022-08-30T15:59:10.769Z,101679.56
2022-08-30T16:01:38.344Z,101676.44
2022-08-30T16:04:06.295Z,101679.91
2022-08-30T16:06:37.448Z,101686.84
2022-08-30T16:09:06.160Z,101669.66
2022-08-30T16:11:34.178Z,101679.75
2022-08-30T16:14:02.009Z,101684.44
2022-08-30T16:16:30.938Z,101679.28
2022-08-30T16:18:58.163Z,101683.44
2022-08-30T16:21:31.573Z,101684.69
2022-08-30T16:24:02.523Z,101682.69
2022-08-30T16:26:31.620Z,101678.63
2022-08-30T16:28:59.173Z,101672.34
2022-08-30T16:31:29.236Z,101669.41
2022-08-30T16:34:02.478Z,101676.09
2022-08-30T16:36:32.473Z,101672.91
2022-08-30T16:38:59.984Z,101675.84
2022-08-30T16:41:27.952Z,101673.47
2022-08-30T16:43:55.486Z,101676.41
2022-08-30T16:46:27.245Z,101669.78
2022-08-30T16:48:58.609Z,101664.94
2022-08-30T16:51:28.004Z,101675.28
2022-08-30T16:54:03.353Z,101658.84
2022-08-30T16:56:32.620Z,101671.03
2022-08-30T16:59:02.571Z,101664.56
2022-08-30T17:01:37.513Z,101665.81
2022-08-30T17:04:06.401Z,101665.25
2022-08-30T17:06:35.476Z,101668.13
2022-08-30T17:09:04.513Z,101664.31
2022-08-30T17:11:33.572Z,101670.59
2022-08-30T17:14:01.469Z,101672.13
2022-08-30T17:16:30.059Z,101678.72
2022-08-30T17:18:59.712Z,101682.28
2022-08-30T17:21:46.092Z,101675.81
2022-08-30T17:24:13.248Z,101678.75
2022-08-30T17:26:40.334Z,101684.72
2022-08-30T17:29:07.935Z,101690.88
2022-08-30T17:31:35.928Z,101679.63
2022-08-30T17:34:05.600Z,101693.75
2022-08-30T17:36:35.512Z,101696.38
2022-08-30T17:39:11.253Z,101693.31
2022-08-30T17:41:49.178Z,101701.34
2022-08-30T17:44:21.819Z,101709.72
2022-08-30T17:46:53.606Z,101713.44
2022-08-30T17:49:21.240Z,101712.69
2022-08-30T17:51:56.268Z,101712.25
2022-08-30T17:54:25.769Z,101722.22
2022-08-30T17:56:53.454Z,101714.97
2022-08-30T18:02:08.079Z,101730.94
2022-08-30T18:04:41.766Z,101722.91
2022-08-30T18:07:12.004Z,101720.81
2022-08-30T18:09:40.662Z,101734.53
2022-08-30T18:12:07.918Z,101731.66
2022-08-30T18:14:35.606Z,101737.47
2022-08-30T18:17:07.300Z,101745.75
2022-08-30T18:19:34.605Z,101751.63
2022-08-30T18:22:03.329Z,101750.34
2022-08-30T18:24:31.249Z,101751.50
2022-08-30T18:26:58.645Z,101755.94
2022-08-30T18:29:30.235Z,101761.50
2022-08-30T18:32:01.456Z,101757.53
2022-08-30T18:34:29.540Z,101758.16
2022-08-30T18:36:57.026Z,101769.16
2022-08-30T18:39:24.633Z,101764.06
2022-08-30T18:41:52.919Z,101778.25
2022-08-30T18:44:28.275Z,101772.03
2022-08-30T18:46:57.627Z,101783.53
2022-08-30T18:49:32.416Z,101775.44
2022-08-30T18:52:01.684Z,101784.72
2022-08-30T18:54:29.834Z,101782.88
2022-08-30T18:56:56.899Z,101783.19
2022-08-30T18:59:24.365Z,101782.41
2022-08-30T19:02:03.213Z,101784.06
2022-08-30T19:04:35.267Z,101780.56
2022-08-30T19:07:10.052Z,101791.75
2022-08-30T19:09:38.371Z,101785.50
2022-08-30T19:12:09.369Z,101780.63
2022-08-30T19:14:36.989Z,101782.56
2022-08-30T19:17:06.886Z,101778.22
2022-08-30T19:19:36.149Z,101774.16
2022-08-30T19:22:13.657Z,101765.22
2022-08-30T19:24:42.144Z,101770.91
2022-08-30T19:27:10.532Z,101774.44
2022-08-30T19:29:37.644Z,101769.56
2022-08-30T19:32:04.576Z,101772.56
2022-08-30T19:34:31.559Z,101772.56
2022-08-30T19:36:58.708Z,101787.47
2022-08-30T19:39:26.485Z,101780.41
2022-08-30T19:41:53.834Z,101774.44
2022-08-30T19:44:21.177Z,101788.84
2022-08-30T19:46:53.135Z,101791.81
2022-08-30T19:49:20.727Z,101785.28
2022-08-30T19:51:48.834Z,101778.78
2022-08-30T19:54:15.802Z,101786.63
2022-08-30T19:56:44.826Z,101783.59
2022-08-30T19:59:11.749Z,101789.28
2022-08-30T20:01:39.047Z,101795.25
2022-08-30T20:04:06.396Z,101796.59
2022-08-30T20:06:33.828Z,101794.13
2022-08-30T20:09:01.951Z,101788.97
2022-08-30T20:11:29.432Z,101792.72
2022-08-30T20:13:57.222Z,101795.97
2022-08-30T20:16:33.048Z,101799.19
2022-08-30T20:19:07.675Z,101801.63
2022-08-30T20:21:36.283Z,101799.97
2022-08-30T20:24:04.673Z,101807.25
2022-08-30T20:24:26.361Z,101718.06
2022-08-30T20:26:38.033Z,101801.53
2022-08-30T20:29:05.922Z,101810.47
2022-08-30T20:31:34.479Z,101808.81
2022-08-30T20:34:02.114Z,101807.94
2022-08-30T20:36:29.087Z,101810.88
2022-08-30T20:38:56.010Z,101809.50
2022-08-30T20:41:24.945Z,101812.72
2022-08-30T20:43:52.840Z,101814.31
2022-08-30T20:46:21.320Z,101811.31
2022-08-30T20:48:48.512Z,101809.38
2022-08-30T20:51:18.962Z,101812.38
2022-08-30T20:53:46.604Z,101815.03
2022-08-30T20:56:18.381Z,101814.75
2022-08-30T20:58:46.326Z,101814.13
2022-08-30T21:01:14.825Z,101812.75
2022-08-30T21:03:43.951Z,101815.97
2022-08-30T21:06:15.109Z,101825.69
2022-08-30T21:08:42.439Z,101820.50
2022-08-30T21:11:09.664Z,101828.88
2022-08-30T21:13:38.080Z,101823.44
2022-08-30T21:16:05.847Z,101827.72
2022-08-30T21:18:35.315Z,101833.66
2022-08-30T21:21:14.894Z,101830.38
2022-08-30T21:23:42.756Z,101826.22
2022-08-30T21:26:10.581Z,101824.84
2022-08-30T21:28:38.767Z,101832.97
2022-08-30T21:31:08.169Z,101831.03
2022-08-30T21:33:36.297Z,101830.72
2022-08-30T21:36:24.152Z,101830.44
2022-08-30T21:38:52.655Z,101827.38
2022-08-30T21:41:21.918Z,101832.78
2022-08-30T21:43:49.748Z,101848.47
2022-08-30T21:46:17.450Z,101834.63
2022-08-30T21:48:46.474Z,101842.69
2022-08-30T21:51:13.876Z,101847.78
2022-08-30T21:53:41.306Z,101841.00
2022-08-30T21:56:21.849Z,101843.38
2022-08-30T21:58:50.468Z,101848.47
2022-08-30T22:01:24.176Z,101841.94
2022-08-30T22:03:54.877Z,101845.97
2022-08-30T22:06:22.209Z,101843.19
2022-08-30T22:08:52.642Z,101852.94
2022-08-30T22:11:23.848Z,101856.72
2022-08-30T22:13:53.722Z,101862.13
2022-08-30T22:16:21.958Z,101863.19
2022-08-30T22:18:49.423Z,101855.59
2022-08-30T22:21:21.208Z,101860.00
2022-08-30T22:23:48.227Z,101849.13
2022-08-30T22:26:17.756Z,101849.16
2022-08-30T22:28:44.996Z,101849.41
2022-08-30T22:31:15.744Z,101852.44
2022-08-30T22:33:44.542Z,101851.88
2022-08-30T22:36:19.667Z,101850.56
2022-08-30T22:38:48.536Z,101846.22
2022-08-30T22:41:18.682Z,101849.47
2022-08-30T22:43:48.494Z,101845.97
2022-08-30T22:46:17.488Z,101850.03
2022-08-30T22:48:46.969Z,101850.56
2022-08-30T22:51:15.385Z,101859.47
2022-08-30T22:53:45.188Z,101858.09
2022-08-30T22:56:16.302Z,101865.41
2022-08-30T22:58:45.187Z,101862.38
2022-08-30T23:01:24.827Z,101867.22
2022-08-30T23:03:53.853Z,101875.28
2022-08-30T23:06:20.711Z,101867.09
2022-08-30T23:08:48.220Z,101866.78
2022-08-30T23:11:16.620Z,101876.47
2022-08-30T23:13:43.967Z,101866.88
2022-08-30T23:16:14.003Z,101880.09
2022-08-30T23:18:43.793Z,101869.19
2022-08-30T23:21:24.248Z,101867.00
2022-08-30T23:24:11.606Z,101875.84
2022-08-30T23:26:58.704Z,101864.66
2022-08-30T23:29:44.606Z,101876.47
2022-08-30T23:32:31.326Z,101866.06
2022-08-30T23:35:16.640Z,101870.56
2022-08-30T23:38:02.271Z,101872.69
2022-08-30T23:40:47.730Z,101875.06
2022-08-30T23:43:33.617Z,101880.41
2022-08-30T23:46:19.461Z,101872.78
2022-08-30T23:49:06.979Z,101885.97
2022-08-30T23:51:54.192Z,101879.66
2022-08-30T23:54:39.549Z,101876.00
2022-08-30T23:57:25.716Z,101876.22
